Time;durP1;ratioP1;P1;durP2;ratioP2;P2;SDS_P1;SDS_P2;PMS_P1;PMS_P2;Temp;Humidity;BMP_temperature;BMP_pressure;BME280_temperature;BME280_humidity;BME280_pressure;Samples;Min_cycle;Max_cycle;Signal;HPM_P1;HPM_P2
2024/01/26 00:02:20;;;;;;;21.40;4.40;;;2.70;99.90;;;;;;4460470;28;657366;-75
2024/01/26 00:05:09;;;;;;;18.27;4.80;;;2.70;99.90;;;;;;4436625;28;656547;-74
2024/01/26 00:07:56;;;;;;;21.97;4.17;;;2.70;99.90;;;;;;4454798;28;657094;-75
2024/01/26 00:10:45;;;;;;;17.77;4.50;;;2.60;99.90;;;;;;4437340;28;657056;-74
2024/01/26 00:13:32;;;;;;;14.73;3.43;;;2.60;99.90;;;;;;4446789;28;656796;-74
2024/01/26 00:16:19;;;;;;;17.17;3.60;;;2.60;99.90;;;;;;4424624;28;656484;-75
2024/01/26 00:19:06;;;;;;;19.27;4.23;;;2.60;99.90;;;;;;4450603;28;656159;-74
2024/01/26 00:21:54;;;;;;;21.00;4.10;;;2.60;99.90;;;;;;4425138;27;656624;-74
2024/01/26 00:24:41;;;;;;;11.40;3.70;;;2.60;99.90;;;;;;4449425;28;657122;-75
2024/01/26 00:27:29;;;;;;;14.87;4.27;;;2.60;99.90;;;;;;4425992;28;656902;-74
2024/01/26 00:30:17;;;;;;;16.53;4.20;;;2.50;99.90;;;;;;4460823;27;656696;-75
2024/01/26 00:33:04;;;;;;;16.17;4.17;;;2.50;99.90;;;;;;4428569;28;657838;-74
2024/01/26 00:35:52;;;;;;;20.70;4.23;;;2.50;99.90;;;;;;4450168;28;656257;-75
2024/01/26 00:38:39;;;;;;;20.77;4.63;;;2.50;99.90;;;;;;4429543;28;656652;-74
2024/01/26 00:41:26;;;;;;;7.50;1.53;;;2.50;99.90;;;;;;4445905;28;656102;-74
2024/01/26 00:44:15;;;;;;;17.20;4.03;;;2.50;99.90;;;;;;4440370;28;655988;-74
2024/01/26 00:47:03;;;;;;;18.00;4.63;;;2.50;99.90;;;;;;4445497;27;656449;-74
2024/01/26 00:49:51;;;;;;;22.85;4.47;;;2.50;99.90;;;;;;4456658;28;657288;-74
2024/01/26 00:52:38;;;;;;;20.40;4.70;;;2.60;99.90;;;;;;4431666;27;656658;-73
2024/01/26 00:55:29;;;;;;;20.73;4.77;;;2.50;99.90;;;;;;4441792;28;657174;-74
2024/01/26 00:58:16;;;;;;;20.83;4.87;;;2.60;99.90;;;;;;4425576;28;656902;-74
2024/01/26 01:01:04;;;;;;;18.67;4.23;;;2.60;99.90;;;;;;4433112;28;656583;-74
2024/01/26 01:03:52;;;;;;;13.97;4.27;;;2.60;99.90;;;;;;4451921;28;656307;-73
2024/01/26 01:06:39;;;;;;;16.60;3.37;;;2.40;99.90;;;;;;4437532;28;656624;-75
2024/01/26 01:09:26;;;;;;;10.87;2.93;;;2.30;99.90;;;;;;4457430;28;656585;-74
2024/01/26 01:12:13;;;;;;;11.93;3.20;;;2.30;99.90;;;;;;4436522;28;656626;-73
2024/01/26 01:15:03;;;;;;;8.30;3.42;;;2.20;99.90;;;;;;4457327;28;657464;-74
2024/01/26 01:17:52;;;;;;;9.07;4.23;;;2.20;99.90;;;;;;4436031;28;655636;-74
2024/01/26 01:20:39;;;;;;;14.17;4.37;;;2.20;99.90;;;;;;4439211;28;655776;-74
2024/01/26 01:23:27;;;;;;;19.33;4.50;;;2.10;99.90;;;;;;4452305;28;656598;-74
2024/01/26 01:26:16;;;;;;;11.03;3.23;;;2.10;99.90;;;;;;4422215;28;657053;-74
2024/01/26 01:29:03;;;;;;;16.27;4.10;;;2.20;99.90;;;;;;4438681;28;656844;-75
2024/01/26 01:31:50;;;;;;;22.80;4.97;;;2.20;99.90;;;;;;4461336;28;656889;-75
2024/01/26 01:34:39;;;;;;;19.13;4.20;;;2.30;99.90;;;;;;4430385;28;656246;-74
2024/01/26 01:37:26;;;;;;;17.87;5.23;;;2.30;99.90;;;;;;4450751;28;656279;-75
2024/01/26 01:40:14;;;;;;;18.63;5.10;;;2.40;99.90;;;;;;4438731;28;656120;-74
2024/01/26 01:43:01;;;;;;;17.73;5.20;;;2.40;99.90;;;;;;4456439;28;656968;-75
2024/01/26 01:45:49;;;;;;;36.60;5.73;;;2.40;99.90;;;;;;4435781;28;656742;-74
2024/01/26 01:48:36;;;;;;;15.00;3.27;;;2.50;99.90;;;;;;4457512;27;656740;-74
2024/01/26 01:51:24;;;;;;;23.17;5.37;;;2.50;99.90;;;;;;4443494;27;656319;-74
2024/01/26 01:54:12;;;;;;;17.13;4.37;;;2.50;99.90;;;;;;4456683;27;656821;-74
2024/01/26 01:56:59;;;;;;;15.00;3.73;;;2.50;99.90;;;;;;4441304;27;656752;-73
2024/01/26 01:59:47;;;;;;;16.33;4.50;;;2.50;99.90;;;;;;4460376;28;656432;-74
2024/01/26 02:02:35;;;;;;;19.47;4.93;;;2.50;99.90;;;;;;4422890;28;656574;-75
2024/01/26 02:05:22;;;;;;;16.17;5.03;;;2.40;99.90;;;;;;4440408;28;657244;-74
2024/01/26 02:08:11;;;;;;;15.80;4.87;;;2.30;99.90;;;;;;4459395;28;656286;-74
2024/01/26 02:10:58;;;;;;;8.97;4.10;;;2.10;99.90;;;;;;4435957;28;656224;-74
2024/01/26 02:13:45;;;;;;;11.40;4.23;;;2.00;99.90;;;;;;4449917;28;655917;-75
2024/01/26 02:16:32;;;;;;;18.05;6.05;;;2.00;99.90;;;;;;4429514;28;656721;-74
2024/01/26 02:19:20;;;;;;;15.93;6.63;;;1.90;99.90;;;;;;4460248;28;657286;-75
2024/01/26 02:22:08;;;;;;;21.00;6.07;;;1.90;99.90;;;;;;4432768;28;656718;-74
2024/01/26 02:24:56;;;;;;;18.90;7.03;;;1.90;99.90;;;;;;4451545;28;657385;-75
2024/01/26 02:27:43;;;;;;;21.47;6.77;;;2.00;99.90;;;;;;4425454;28;656596;-75
2024/01/26 02:30:33;;;;;;;20.10;7.63;;;1.90;99.90;;;;;;4451808;27;657202;-75
2024/01/26 02:33:20;;;;;;;28.60;8.00;;;1.90;99.90;;;;;;4431895;28;657442;-75
2024/01/26 02:36:08;;;;;;;23.87;7.73;;;1.90;99.90;;;;;;4431740;28;656693;-74
2024/01/26 02:38:55;;;;;;;17.47;6.97;;;2.00;99.90;;;;;;4452614;28;657101;-75
2024/01/26 02:41:44;;;;;;;24.20;8.03;;;1.90;99.90;;;;;;4432366;28;656188;-74
2024/01/26 02:44:32;;;;;;;29.87;7.93;;;2.00;99.90;;;;;;4456387;28;656413;-74
2024/01/26 02:47:19;;;;;;;23.33;7.87;;;2.00;99.90;;;;;;4420641;28;657194;-73
2024/01/26 02:50:07;;;;;;;27.67;7.50;;;2.00;99.90;;;;;;4462411;28;656465;-75
2024/01/26 02:52:54;;;;;;;24.00;6.80;;;2.00;99.90;;;;;;4437001;28;656809;-75
2024/01/26 02:55:42;;;;;;;19.27;6.50;;;2.10;99.90;;;;;;4449903;28;656383;-76
2024/01/26 02:58:30;;;;;;;23.37;6.40;;;2.10;99.90;;;;;;4441163;28;656763;-75
2024/01/26 03:01:17;;;;;;;18.40;6.33;;;2.10;99.90;;;;;;4421971;28;656713;-74
2024/01/26 03:04:05;;;;;;;5.43;2.13;;;2.10;99.90;;;;;;4453086;28;657932;-75
2024/01/26 03:06:53;;;;;;;21.83;5.30;;;2.20;99.90;;;;;;4448800;28;655496;-74
2024/01/26 03:09:40;;;;;;;29.63;6.20;;;2.10;99.90;;;;;;4459211;28;657304;-76
2024/01/26 03:12:28;;;;;;;21.00;6.10;;;2.10;99.90;;;;;;4441015;28;656274;-74
2024/01/26 03:15:17;;;;;;;17.10;5.17;;;2.10;99.90;;;;;;4444414;28;657260;-76
2024/01/26 03:18:04;;;;;;;19.40;4.60;;;2.20;99.90;;;;;;4440309;28;656123;-75
2024/01/26 03:20:51;;;;;;;23.27;4.07;;;2.20;99.90;;;;;;4459095;28;656160;-75
2024/01/26 03:23:39;;;;;;;18.43;4.67;;;2.20;99.90;;;;;;4429406;28;656504;-75
2024/01/26 03:26:26;;;;;;;16.93;4.63;;;2.20;99.90;;;;;;4448749;28;656334;-75
2024/01/26 03:29:13;;;;;;;11.17;2.63;;;2.20;99.90;;;;;;4441556;28;656969;-75
2024/01/26 03:32:02;;;;;;;15.93;4.32;;;2.30;99.90;;;;;;4450675;28;656909;-76
2024/01/26 03:34:49;;;;;;;15.17;4.40;;;2.20;99.90;;;;;;4430946;28;656882;-76
2024/01/26 03:37:38;;;;;;;16.13;4.50;;;2.20;99.90;;;;;;4453072;28;656359;-75
2024/01/26 03:40:25;;;;;;;14.60;4.30;;;2.30;99.90;;;;;;4428949;28;657007;-76
2024/01/26 03:43:08;;;;;;;22.40;5.50;;;2.20;99.90;;;;;;4894588;27;131806;-76
2024/01/26 03:45:55;;;;;;;18.97;4.40;;;2.20;99.90;;;;;;4401559;28;651478;-76
2024/01/26 03:48:43;;;;;;;19.50;4.70;;;2.20;99.90;;;;;;4394478;28;650169;-75
2024/01/26 03:51:30;;;;;;;13.27;4.60;;;2.20;99.90;;;;;;4417847;28;650954;-76
2024/01/26 03:54:17;;;;;;;17.53;4.47;;;2.20;99.90;;;;;;4414027;28;650629;-75
2024/01/26 03:57:05;;;;;;;20.63;4.80;;;2.20;99.90;;;;;;4418463;28;650624;-76
2024/01/26 03:59:54;;;;;;;13.60;3.73;;;2.20;99.90;;;;;;4421565;28;651128;-75
2024/01/26 04:02:41;;;;;;;17.20;4.78;;;2.20;99.90;;;;;;4433562;28;651014;-76
2024/01/26 04:05:29;;;;;;;11.87;3.30;;;2.20;99.90;;;;;;4411444;28;651333;-76
2024/01/26 04:08:18;;;;;;;11.87;3.93;;;2.20;99.90;;;;;;4430772;28;651306;-76
2024/01/26 04:11:05;;;;;;;14.43;4.23;;;2.10;99.90;;;;;;4416142;28;652712;-76
2024/01/26 04:13:52;;;;;;;19.40;3.87;;;2.10;99.90;;;;;;4423380;28;652187;-75
2024/01/26 04:16:41;;;;;;;16.47;4.03;;;2.10;99.90;;;;;;4437323;28;652417;-76
2024/01/26 04:19:28;;;;;;;12.75;3.42;;;2.10;99.90;;;;;;4408589;28;652900;-77
2024/01/26 04:22:15;;;;;;;11.97;3.23;;;2.10;99.90;;;;;;4439900;28;652595;-76
2024/01/26 04:25:02;;;;;;;12.80;3.80;;;2.10;99.90;;;;;;4419926;28;652818;-76
2024/01/26 04:27:50;;;;;;;15.37;3.50;;;2.20;99.90;;;;;;4430427;28;653162;-77
2024/01/26 04:30:39;;;;;;;16.67;3.50;;;2.10;99.90;;;;;;4430759;28;652745;-74
2024/01/26 04:33:28;;;;;;;13.70;3.37;;;2.10;99.90;;;;;;4440664;28;653151;-77
2024/01/26 04:36:16;;;;;;;9.20;2.70;;;2.10;99.90;;;;;;4409823;28;652734;-77
2024/01/26 04:39:03;;;;;;;17.60;3.70;;;2.10;99.90;;;;;;4437708;28;651165;-76
2024/01/26 04:41:50;;;;;;;11.93;3.50;;;2.10;99.90;;;;;;4439297;28;653821;-76
2024/01/26 04:44:38;;;;;;;16.20;4.07;;;2.10;99.90;;;;;;4420053;28;652699;-75
2024/01/26 04:47:25;;;;;;;9.53;3.57;;;2.00;99.90;;;;;;4450435;28;653025;-75
2024/01/26 04:50:14;;;;;;;22.77;3.57;;;2.00;99.90;;;;;;4449027;28;651418;-74
2024/01/26 04:53:01;;;;;;;14.93;4.10;;;2.10;99.90;;;;;;4457342;28;651841;-76
2024/01/26 04:55:48;;;;;;;13.77;3.97;;;2.10;99.90;;;;;;4419064;28;652817;-75
2024/01/26 04:58:35;;;;;;;14.60;3.25;;;2.10;99.90;;;;;;4439638;28;653596;-76
2024/01/26 05:01:23;;;;;;;18.13;4.40;;;2.00;99.90;;;;;;4414551;28;652706;-75
2024/01/26 05:04:10;;;;;;;15.37;4.00;;;2.00;99.90;;;;;;4432792;28;653302;-76
2024/01/26 05:06:59;;;;;;;24.70;4.40;;;2.00;99.90;;;;;;4441827;28;652721;-76
2024/01/26 05:09:46;;;;;;;15.77;4.60;;;2.00;99.90;;;;;;4451482;28;652914;-76
2024/01/26 05:12:33;;;;;;;14.90;3.47;;;2.00;99.90;;;;;;4425648;28;652559;-75
2024/01/26 05:15:20;;;;;;;15.57;4.63;;;2.00;99.90;;;;;;4451932;28;653407;-77
2024/01/26 05:18:08;;;;;;;14.80;4.30;;;2.00;99.90;;;;;;4418898;28;653051;-75
2024/01/26 05:20:55;;;;;;;18.40;4.90;;;2.00;99.90;;;;;;4445367;28;652992;-76
2024/01/26 05:23:44;;;;;;;18.67;4.07;;;2.00;99.90;;;;;;4413912;28;652474;-74
2024/01/26 05:26:32;;;;;;;18.60;4.40;;;2.00;99.90;;;;;;4445030;28;652526;-76
2024/01/26 05:29:20;;;;;;;20.05;5.47;;;2.00;99.90;;;;;;4424856;28;653258;-76
2024/01/26 05:32:08;;;;;;;17.07;4.40;;;2.00;99.90;;;;;;4439810;28;652146;-76
2024/01/26 05:34:55;;;;;;;14.43;3.90;;;2.00;99.90;;;;;;4450900;28;652793;-76
2024/01/26 05:37:43;;;;;;;17.08;4.65;;;2.00;99.90;;;;;;4428100;28;652582;-75
2024/01/26 05:40:31;;;;;;;16.80;3.97;;;1.90;99.90;;;;;;4424339;28;652487;-76
2024/01/26 05:43:18;;;;;;;15.02;4.88;;;1.90;99.90;;;;;;4425167;28;652897;-76
2024/01/26 05:46:06;;;;;;;17.60;4.10;;;1.90;99.90;;;;;;4442859;28;653385;-77
2024/01/26 05:48:55;;;;;;;20.17;4.23;;;1.90;99.90;;;;;;4423993;28;653038;-76
2024/01/26 05:51:42;;;;;;;21.50;3.97;;;1.80;99.90;;;;;;4442729;28;652865;-76
2024/01/26 05:54:29;;;;;;;10.20;4.03;;;1.80;99.90;;;;;;4424158;28;653252;-75
2024/01/26 05:57:18;;;;;;;17.85;4.68;;;1.80;99.90;;;;;;4445557;28;652264;-76
2024/01/26 06:00:06;;;;;;;22.33;5.10;;;1.80;99.90;;;;;;4424247;28;652572;-75
2024/01/26 06:02:54;;;;;;;16.97;3.67;;;1.80;99.90;;;;;;4418069;28;652436;-75
2024/01/26 06:05:41;;;;;;;15.37;4.57;;;1.80;99.90;;;;;;4443042;28;652633;-76
2024/01/26 06:08:28;;;;;;;16.10;4.83;;;1.70;99.90;;;;;;4423808;28;653082;-75
2024/01/26 06:11:17;;;;;;;10.13;3.27;;;1.70;99.90;;;;;;4436594;28;652498;-76
2024/01/26 06:14:05;;;;;;;20.13;4.40;;;1.80;99.90;;;;;;4423183;28;652874;-77
2024/01/26 06:16:52;;;;;;;19.65;4.28;;;1.70;99.90;;;;;;4427456;28;652970;-75
2024/01/26 06:19:40;;;;;;;17.50;4.13;;;1.80;99.90;;;;;;4446741;28;653429;-76
2024/01/26 06:22:27;;;;;;;16.17;3.73;;;1.80;99.90;;;;;;4449805;28;653027;-76
2024/01/26 06:25:14;;;;;;;13.20;4.27;;;1.80;99.90;;;;;;4418144;28;653249;-76
2024/01/26 06:28:01;;;;;;;25.47;4.90;;;1.80;99.90;;;;;;4424508;28;651949;-76
2024/01/26 06:30:50;;;;;;;20.10;4.97;;;1.80;99.90;;;;;;4413523;28;653432;-76
2024/01/26 06:33:37;;;;;;;17.00;4.90;;;1.80;99.90;;;;;;4442599;28;653449;-75
2024/01/26 06:36:25;;;;;;;17.17;5.17;;;1.90;99.90;;;;;;4442616;28;653637;-74
2024/01/26 06:39:12;;;;;;;20.63;4.77;;;1.80;99.90;;;;;;4437889;28;653444;-75
2024/01/26 06:42:00;;;;;;;14.40;3.27;;;1.90;99.90;;;;;;4447317;28;653948;-75
2024/01/26 06:44:47;;;;;;;21.03;5.40;;;1.90;99.90;;;;;;4445795;28;653221;-75
2024/01/26 06:47:35;;;;;;;19.40;6.90;;;1.90;99.90;;;;;;4418815;28;653818;-75
2024/01/26 06:50:23;;;;;;;18.33;5.03;;;1.90;99.90;;;;;;4423203;28;653417;-75
2024/01/26 06:53:10;;;;;;;21.50;6.27;;;1.80;99.90;;;;;;4418107;28;654752;-75
2024/01/26 06:55:57;;;;;;;30.30;6.20;;;1.90;99.90;;;;;;4433136;28;654189;-75
2024/01/26 06:58:45;;;;;;;20.33;5.27;;;1.90;99.90;;;;;;4436941;28;654364;-75
2024/01/26 07:01:32;;;;;;;27.57;6.53;;;1.90;99.90;;;;;;4413148;28;653765;-75
2024/01/26 07:04:21;;;;;;;22.20;4.93;;;1.90;99.90;;;;;;4445431;28;653559;-75
2024/01/26 07:07:08;;;;;;;23.80;5.43;;;1.90;99.90;;;;;;4413077;28;653853;-75
2024/01/26 07:09:55;;;;;;;10.97;3.50;;;2.00;99.90;;;;;;4435653;28;653408;-76
2024/01/26 07:12:42;;;;;;;19.47;5.57;;;1.90;99.90;;;;;;4406558;28;653403;-75
2024/01/26 07:15:31;;;;;;;20.00;3.37;;;2.00;99.90;;;;;;4443024;28;654609;-75
2024/01/26 07:18:18;;;;;;;24.77;6.90;;;2.00;99.90;;;;;;4429487;28;653926;-75
2024/01/26 07:21:10;;;;;;;26.03;6.83;;;2.00;99.90;;;;;;4436708;28;653472;-76
2024/01/26 07:23:58;;;;;;;27.77;7.13;;;2.00;99.90;;;;;;4419747;28;653324;-75
2024/01/26 07:26:46;;;;;;;25.50;7.38;;;2.00;99.90;;;;;;4424683;28;653827;-75
2024/01/26 07:29:33;;;;;;;25.87;6.90;;;2.00;99.90;;;;;;4422030;28;653910;-75
2024/01/26 07:32:20;;;;;;;26.00;6.63;;;1.90;99.90;;;;;;4437676;28;653765;-75
2024/01/26 07:35:08;;;;;;;19.65;6.88;;;1.90;99.90;;;;;;4401652;28;653138;-75
2024/01/26 07:37:56;;;;;;;25.97;6.67;;;2.00;99.90;;;;;;4448163;28;653651;-75
2024/01/26 07:40:44;;;;;;;25.00;6.80;;;2.10;99.90;;;;;;4416611;28;653665;-76
2024/01/26 07:43:31;;;;;;;26.60;7.33;;;2.00;99.90;;;;;;4435984;28;653770;-76
2024/01/26 07:46:18;;;;;;;19.13;6.43;;;2.10;99.90;;;;;;4419578;28;654259;-76
2024/01/26 07:49:05;;;;;;;19.80;5.30;;;2.10;99.90;;;;;;4444789;28;653604;-76
2024/01/26 07:51:53;;;;;;;26.43;6.07;;;2.10;99.90;;;;;;4402378;28;653811;-75
2024/01/26 07:54:41;;;;;;;26.70;6.37;;;2.10;99.90;;;;;;4435943;28;653876;-76
2024/01/26 07:57:28;;;;;;;29.87;7.30;;;2.20;99.90;;;;;;4418044;28;654155;-76
2024/01/26 08:00:17;;;;;;;23.20;6.40;;;2.20;99.90;;;;;;4438497;28;653862;-76
2024/01/26 08:03:04;;;;;;;19.77;6.43;;;2.30;99.90;;;;;;4411776;28;654712;-76
2024/01/26 08:05:52;;;;;;;24.43;6.10;;;2.30;99.90;;;;;;4447201;28;653615;-76
2024/01/26 08:08:39;;;;;;;20.83;5.10;;;2.30;99.90;;;;;;4430090;28;653086;-75
2024/01/26 08:11:27;;;;;;;26.97;7.30;;;2.40;99.90;;;;;;4438477;28;653765;-76
2024/01/26 08:14:14;;;;;;;22.27;7.40;;;2.40;99.90;;;;;;4417073;28;654270;-75
2024/01/26 08:17:03;;;;;;;23.77;8.27;;;2.30;99.90;;;;;;4426011;28;653588;-76
2024/01/26 08:19:50;;;;;;;18.60;7.27;;;2.50;99.90;;;;;;4423164;28;654255;-76
2024/01/26 08:22:38;;;;;;;26.60;7.93;;;2.50;99.90;;;;;;4441473;28;655315;-75
2024/01/26 08:25:26;;;;;;;25.95;8.18;;;2.50;99.90;;;;;;4440915;28;654687;-76
2024/01/26 08:28:14;;;;;;;26.53;8.63;;;2.50;99.90;;;;;;4418982;28;654577;-75
2024/01/26 08:31:01;;;;;;;27.33;8.20;;;2.60;99.90;;;;;;4438293;28;654649;-75
2024/01/26 08:33:49;;;;;;;27.10;7.63;;;2.60;99.90;;;;;;4416731;28;654827;-76
2024/01/26 08:36:36;;;;;;;26.38;9.73;;;2.70;99.90;;;;;;4447979;28;654714;-75
2024/01/26 08:39:24;;;;;;;24.20;9.57;;;2.60;99.90;;;;;;4408288;28;654424;-76
2024/01/26 08:42:11;;;;;;;26.87;8.00;;;2.70;99.90;;;;;;4432793;28;654201;-76
2024/01/26 08:44:59;;;;;;;15.53;5.63;;;2.70;99.90;;;;;;4415162;28;655016;-76
2024/01/26 08:47:47;;;;;;;27.60;9.10;;;2.70;99.90;;;;;;4446853;28;654869;-76
2024/01/26 08:50:36;;;;;;;30.07;9.80;;;2.80;99.90;;;;;;4418598;28;655578;-77
2024/01/26 08:53:23;;;;;;;30.47;8.47;;;2.70;99.90;;;;;;4424195;28;655011;-76
2024/01/26 08:56:10;;;;;;;24.50;9.43;;;2.80;99.90;;;;;;4423208;28;655854;-76
2024/01/26 08:58:57;;;;;;;25.10;8.97;;;2.80;99.90;;;;;;4413891;28;654513;-75
2024/01/26 09:01:46;;;;;;;24.50;8.83;;;2.90;99.90;;;;;;4446985;28;655007;-76
2024/01/26 09:04:34;;;;;;;14.30;6.03;;;2.90;99.90;;;;;;4420829;28;654869;-77
2024/01/26 09:07:22;;;;;;;27.37;8.97;;;2.80;99.90;;;;;;4432975;28;655021;-76
2024/01/26 09:10:10;;;;;;;18.80;7.17;;;2.80;99.90;;;;;;4413595;28;655027;-76
2024/01/26 09:12:57;;;;;;;26.20;9.73;;;2.80;99.90;;;;;;4402682;28;654641;-75
2024/01/26 09:15:45;;;;;;;29.17;6.87;;;2.80;99.90;;;;;;4434135;28;655548;-76
2024/01/26 09:18:34;;;;;;;27.93;9.10;;;2.80;99.90;;;;;;4441263;28;654512;-75
2024/01/26 09:21:21;;;;;;;25.73;8.40;;;2.90;99.90;;;;;;4420838;28;655176;-77
2024/01/26 09:24:08;;;;;;;24.70;7.27;;;3.10;99.90;;;;;;4421097;28;655268;-76
2024/01/26 09:26:57;;;;;;;17.63;7.63;;;3.10;99.90;;;;;;4439980;28;655078;-77
2024/01/26 09:29:44;;;;;;;24.27;6.53;;;3.20;99.90;;;;;;4416752;28;655036;-77
2024/01/26 09:32:33;;;;;;;27.40;8.77;;;3.20;99.90;;;;;;4456524;28;654727;-77
2024/01/26 09:35:22;;;;;;;20.93;8.20;;;3.00;99.90;;;;;;4420709;28;654980;-76
2024/01/26 09:38:09;;;;;;;22.77;8.70;;;3.20;99.90;;;;;;4416029;28;655715;-77
2024/01/26 09:40:56;;;;;;;16.63;6.27;;;3.20;99.90;;;;;;4452077;28;654137;-76
2024/01/26 09:43:44;;;;;;;24.40;7.33;;;3.10;99.90;;;;;;4422352;28;654843;-76
2024/01/26 09:46:31;;;;;;;20.50;7.13;;;3.20;99.90;;;;;;4442858;28;654561;-77
2024/01/26 09:49:18;;;;;;;18.93;6.13;;;3.30;99.90;;;;;;4426747;28;654464;-76
2024/01/26 09:52:07;;;;;;;20.90;6.57;;;3.20;99.90;;;;;;4443062;28;654701;-76
2024/01/26 09:54:54;;;;;;;17.83;6.20;;;3.20;99.90;;;;;;4405586;28;654300;-77
2024/01/26 09:57:42;;;;;;;21.27;7.20;;;3.10;99.90;;;;;;4439249;28;655104;-76
2024/01/26 10:00:29;;;;;;;19.27;6.57;;;3.20;99.90;;;;;;4396361;28;654684;-76
2024/01/26 10:03:18;;;;;;;19.35;6.53;;;3.20;99.90;;;;;;4454139;28;654344;-77
2024/01/26 10:06:05;;;;;;;16.70;6.40;;;3.20;99.90;;;;;;4421931;28;655157;-76
2024/01/26 10:08:54;;;;;;;19.27;5.00;;;3.30;99.90;;;;;;4421823;28;654991;-75
2024/01/26 10:11:41;;;;;;;26.83;6.17;;;3.20;99.90;;;;;;4444145;28;654507;-77
2024/01/26 10:14:28;;;;;;;20.97;5.97;;;3.10;99.90;;;;;;4418599;28;655949;-77
2024/01/26 10:17:17;;;;;;;16.17;5.40;;;3.10;99.90;;;;;;4432867;28;654686;-77
2024/01/26 10:20:09;;;;;;;14.87;5.23;;;3.10;99.90;;;;;;4415039;28;655594;-76
2024/01/26 10:22:56;;;;;;;16.00;5.10;;;3.10;99.90;;;;;;4415564;28;654172;-76
2024/01/26 10:25:45;;;;;;;16.40;5.03;;;3.10;99.90;;;;;;4400207;28;654230;-76
2024/01/26 10:28:32;;;;;;;14.90;4.13;;;3.00;99.90;;;;;;4427427;28;654480;-75
2024/01/26 10:31:20;;;;;;;15.23;4.60;;;3.00;99.90;;;;;;4434619;28;654977;-76
2024/01/26 10:34:07;;;;;;;16.10;5.87;;;3.00;99.90;;;;;;4444927;28;654042;-77
2024/01/26 10:36:54;;;;;;;16.47;4.97;;;3.00;99.90;;;;;;4407274;28;654246;-77
2024/01/26 10:39:42;;;;;;;23.38;6.05;;;3.10;99.90;;;;;;4439132;28;654862;-77
2024/01/26 10:42:30;;;;;;;11.80;4.13;;;3.00;99.90;;;;;;4416716;28;654999;-76
2024/01/26 10:45:18;;;;;;;16.90;6.10;;;3.20;99.90;;;;;;4426721;28;654347;-76
2024/01/26 10:48:06;;;;;;;18.17;5.87;;;3.30;99.90;;;;;;4439948;28;654940;-77
2024/01/26 10:50:53;;;;;;;9.40;3.43;;;3.40;99.90;;;;;;4418427;28;654953;-77
2024/01/26 10:53:41;;;;;;;27.07;8.27;;;3.40;99.90;;;;;;4438076;28;654600;-76
2024/01/26 10:56:28;;;;;;;20.43;6.70;;;3.30;99.90;;;;;;4417324;28;654773;-75
2024/01/26 10:59:17;;;;;;;25.77;7.57;;;3.30;99.90;;;;;;4448919;28;655748;-76
2024/01/26 11:02:05;;;;;;;20.60;7.73;;;3.20;99.90;;;;;;4412485;28;655544;-76
2024/01/26 11:04:52;;;;;;;26.13;8.00;;;3.20;99.90;;;;;;4444006;28;654825;-77
2024/01/26 11:07:39;;;;;;;23.10;8.03;;;3.40;99.90;;;;;;4402600;28;654705;-75
2024/01/26 11:10:28;;;;;;;29.10;9.00;;;3.50;99.90;;;;;;4439923;28;654228;-76
2024/01/26 11:13:16;;;;;;;22.07;6.33;;;3.50;99.90;;;;;;4417806;28;655504;-76
2024/01/26 11:16:06;;;;;;;22.20;7.97;;;3.50;99.90;;;;;;4420207;28;655129;-77
2024/01/26 11:18:58;;;;;;;24.90;6.10;;;3.40;99.90;;;;;;4417691;28;654781;-76
2024/01/26 11:21:45;;;;;;;24.23;7.97;;;3.40;99.90;;;;;;4428042;28;655470;-77
2024/01/26 11:24:33;;;;;;;27.30;7.60;;;3.50;99.90;;;;;;4435406;28;654528;-76
2024/01/26 11:27:20;;;;;;;28.93;7.80;;;3.40;99.90;;;;;;4434722;28;654937;-76
2024/01/26 11:30:09;;;;;;;23.57;7.03;;;3.50;99.90;;;;;;4421221;28;654569;-75
2024/01/26 11:32:58;;;;;;;28.33;8.07;;;3.50;99.90;;;;;;4447533;28;654805;-77
2024/01/26 11:35:46;;;;;;;15.53;5.63;;;3.60;99.90;;;;;;4411327;28;655455;-77
2024/01/26 11:38:33;;;;;;;19.00;7.20;;;3.60;99.90;;;;;;4416018;28;654822;-75
2024/01/26 11:41:20;;;;;;;22.50;6.93;;;3.60;99.90;;;;;;4437399;28;654909;-77
2024/01/26 11:44:08;;;;;;;20.77;6.83;;;3.70;99.90;;;;;;4410556;28;654216;-76
2024/01/26 11:46:55;;;;;;;24.40;5.93;;;3.70;99.90;;;;;;4433220;28;655842;-77
2024/01/26 11:49:44;;;;;;;23.77;5.97;;;3.70;99.90;;;;;;4428132;28;654351;-75
2024/01/26 11:52:32;;;;;;;17.53;6.60;;;3.70;99.90;;;;;;4426179;28;655297;-77
2024/01/26 11:55:20;;;;;;;13.87;3.87;;;3.70;99.90;;;;;;4414068;28;654889;-75
2024/01/26 11:58:07;;;;;;;18.07;5.27;;;3.70;99.90;;;;;;4433044;28;654235;-75
2024/01/26 12:00:55;;;;;;;21.27;5.93;;;3.80;99.90;;;;;;4440496;28;654845;-77
2024/01/26 12:03:42;;;;;;;19.13;6.20;;;3.90;99.90;;;;;;4417752;28;654263;-74
2024/01/26 12:06:31;;;;;;;15.73;5.20;;;3.80;99.90;;;;;;4426420;28;654609;-77
2024/01/26 12:09:18;;;;;;;10.47;3.47;;;3.80;99.90;;;;;;4415418;28;654369;-77
2024/01/26 12:12:08;;;;;;;15.35;4.90;;;3.90;99.90;;;;;;4442100;28;655474;-76
2024/01/26 12:14:55;;;;;;;17.93;4.83;;;4.00;99.90;;;;;;4420531;28;655499;-77
2024/01/26 12:17:42;;;;;;;6.73;2.40;;;4.00;99.90;;;;;;4442535;28;654760;-76
2024/01/26 12:20:30;;;;;;;12.30;4.53;;;4.00;99.90;;;;;;4447932;28;653311;-76
2024/01/26 12:23:18;;;;;;;15.17;4.63;;;3.90;99.90;;;;;;4438685;28;654539;-77
2024/01/26 12:26:09;;;;;;;16.47;4.97;;;3.90;99.90;;;;;;4416094;28;655085;-77
2024/01/26 12:28:56;;;;;;;12.83;4.83;;;3.90;99.90;;;;;;4426042;28;654649;-76
2024/01/26 12:31:43;;;;;;;13.43;4.73;;;3.80;99.90;;;;;;4414542;28;654871;-76
2024/01/26 12:34:30;;;;;;;11.10;4.87;;;3.90;99.90;;;;;;4442765;28;654739;-77
2024/01/26 12:37:18;;;;;;;20.55;6.85;;;4.00;99.90;;;;;;4421595;28;654611;-76
2024/01/26 12:40:08;;;;;;;12.63;4.77;;;3.90;99.90;;;;;;4441010;28;655020;-75
2024/01/26 12:42:55;;;;;;;13.37;6.17;;;4.00;99.90;;;;;;4424140;28;655273;-77
2024/01/26 12:45:42;;;;;;;11.87;3.67;;;4.20;99.90;;;;;;4406283;28;657706;-75
2024/01/26 12:48:30;;;;;;;7.23;3.83;;;4.20;99.90;;;;;;4433377;28;655681;-76
2024/01/26 12:51:18;;;;;;;7.63;3.43;;;4.30;99.90;;;;;;4431928;28;653975;-75
2024/01/26 12:54:06;;;;;;;16.83;4.13;;;4.40;99.90;;;;;;4446827;28;654356;-77
2024/01/26 12:56:54;;;;;;;7.00;2.77;;;4.40;99.90;;;;;;4423848;28;654765;-76
2024/01/26 12:59:41;;;;;;;14.60;5.00;;;4.60;99.90;;;;;;4432362;28;653270;-77
2024/01/26 13:02:29;;;;;;;16.63;5.40;;;4.30;99.90;;;;;;4416050;28;654426;-75
2024/01/26 13:05:16;;;;;;;14.43;4.90;;;4.20;99.90;;;;;;4435322;28;654211;-76
2024/01/26 13:08:04;;;;;;;13.60;4.90;;;4.30;99.90;;;;;;4416949;28;654834;-77
2024/01/26 13:10:51;;;;;;;13.03;4.63;;;4.10;99.90;;;;;;4434736;28;654590;-76
2024/01/26 13:13:40;;;;;;;14.77;4.87;;;4.20;99.90;;;;;;4407439;28;655088;-76
2024/01/26 13:16:28;;;;;;;17.90;6.70;;;4.20;99.90;;;;;;4414106;28;654434;-75
2024/01/26 13:19:15;;;;;;;10.83;3.93;;;4.70;99.90;;;;;;4439301;28;655685;-76
2024/01/26 13:22:03;;;;;;;20.00;6.40;;;4.90;99.90;;;;;;4436242;28;656166;-76
2024/01/26 13:24:50;;;;;;;19.37;5.63;;;4.70;99.90;;;;;;4440955;28;655640;-76
2024/01/26 13:27:38;;;;;;;15.53;5.07;;;4.90;99.90;;;;;;4413317;28;655144;-76
2024/01/26 13:30:26;;;;;;;12.20;4.63;;;4.60;99.90;;;;;;4432173;28;655124;-76
2024/01/26 13:33:14;;;;;;;22.67;6.77;;;4.40;99.90;;;;;;4412318;28;654673;-76
2024/01/26 13:36:01;;;;;;;19.70;6.30;;;4.20;99.90;;;;;;4424398;28;654782;-77
2024/01/26 13:38:49;;;;;;;25.37;7.73;;;4.10;99.90;;;;;;4411278;28;654466;-77
2024/01/26 13:41:36;;;;;;;25.67;7.30;;;4.00;99.90;;;;;;4431380;28;654698;-77
2024/01/26 13:44:23;;;;;;;14.93;5.33;;;3.90;99.90;;;;;;4414068;28;654674;-76
2024/01/26 13:47:12;;;;;;;23.13;7.40;;;3.90;99.90;;;;;;4438434;28;656024;-75
2024/01/26 13:49:59;;;;;;;26.67;8.43;;;3.90;99.90;;;;;;4403005;28;655131;-77
2024/01/26 13:52:46;;;;;;;21.53;6.43;;;4.00;99.90;;;;;;4423834;28;654460;-77
2024/01/26 13:55:34;;;;;;;22.57;6.37;;;4.00;99.90;;;;;;4406665;28;654980;-76
2024/01/26 13:58:22;;;;;;;22.97;7.70;;;4.20;99.90;;;;;;4435856;28;654989;-78
2024/01/26 14:01:10;;;;;;;29.23;8.73;;;4.50;99.90;;;;;;4409944;28;655132;-76
2024/01/26 14:03:59;;;;;;;23.40;8.50;;;4.70;99.90;;;;;;4427947;28;654673;-75
2024/01/26 14:06:46;;;;;;;27.60;7.00;;;4.80;99.90;;;;;;4429069;28;654233;-78
2024/01/26 14:09:34;;;;;;;27.15;8.20;;;4.90;99.90;;;;;;4413474;28;654833;-77
2024/01/26 14:12:21;;;;;;;23.73;6.87;;;5.10;99.90;;;;;;4429877;28;654356;-77
2024/01/26 14:15:09;;;;;;;22.42;7.57;;;4.90;99.90;;;;;;4415373;28;654915;-77
2024/01/26 14:17:57;;;;;;;15.77;5.40;;;4.70;99.90;;;;;;4438661;28;654387;-77
2024/01/26 14:20:46;;;;;;;26.40;8.80;;;4.50;99.90;;;;;;4411548;28;654605;-76
2024/01/26 14:23:35;;;;;;;24.52;8.00;;;4.20;99.90;;;;;;4403526;28;655275;-76